sensor_id;sensor_type;location;lat;lon;timestamp;P1;durP1;ratioP1;P2;durP2;ratioP2
58864;SDS011;45702;52.982;6.658;2023-02-11T00:01:51;45.72;;;11.93;;
58864;SDS011;45702;52.982;6.658;2023-02-11T00:04:17;45.30;;;12.07;;
58864;SDS011;45702;52.982;6.658;2023-02-11T00:06:42;34.20;;;10.90;;
58864;SDS011;45702;52.982;6.658;2023-02-11T00:09:08;37.10;;;11.70;;
58864;SDS011;45702;52.982;6.658;2023-02-11T00:11:34;33.47;;;10.90;;
58864;SDS011;45702;52.982;6.658;2023-02-11T00:14:01;37.38;;;10.70;;
58864;SDS011;45702;52.982;6.658;2023-02-11T00:16:28;34.75;;;10.50;;
58864;SDS011;45702;52.982;6.658;2023-02-11T00:18:57;41.58;;;10.77;;
58864;SDS011;45702;52.982;6.658;2023-02-11T00:21:24;43.10;;;10.40;;
58864;SDS011;45702;52.982;6.658;2023-02-11T00:23:51;39.35;;;11.60;;
58864;SDS011;45702;52.982;6.658;2023-02-11T00:26:22;42.00;;;10.75;;
58864;SDS011;45702;52.982;6.658;2023-02-11T00:28:50;39.78;;;12.25;;
58864;SDS011;45702;52.982;6.658;2023-02-11T00:31:17;40.75;;;10.63;;
58864;SDS011;45702;52.982;6.658;2023-02-11T00:33:44;53.13;;;11.18;;
58864;SDS011;45702;52.982;6.658;2023-02-11T00:36:14;42.83;;;11.27;;
58864;SDS011;45702;52.982;6.658;2023-02-11T00:38:45;50.63;;;10.45;;
58864;SDS011;45702;52.982;6.658;2023-02-11T00:41:12;43.95;;;10.23;;
58864;SDS011;45702;52.982;6.658;2023-02-11T00:43:39;49.22;;;10.90;;
58864;SDS011;45702;52.982;6.658;2023-02-11T00:46:05;38.10;;;10.38;;
58864;SDS011;45702;52.982;6.658;2023-02-11T00:48:32;39.25;;;9.90;;
58864;SDS011;45702;52.982;6.658;2023-02-11T00:50:58;38.67;;;10.48;;
58864;SDS011;45702;52.982;6.658;2023-02-11T00:53:24;45.22;;;10.30;;
58864;SDS011;45702;52.982;6.658;2023-02-11T00:55:50;37.53;;;9.52;;
58864;SDS011;45702;52.982;6.658;2023-02-11T00:58:16;44.63;;;10.10;;
58864;SDS011;45702;52.982;6.658;2023-02-11T01:00:42;52.55;;;11.02;;
58864;SDS011;45702;52.982;6.658;2023-02-11T01:03:08;38.55;;;10.15;;
58864;SDS011;45702;52.982;6.658;2023-02-11T01:05:34;45.60;;;10.25;;
58864;SDS011;45702;52.982;6.658;2023-02-11T01:08:00;44.20;;;10.45;;
58864;SDS011;45702;52.982;6.658;2023-02-11T01:10:26;41.10;;;11.02;;
58864;SDS011;45702;52.982;6.658;2023-02-11T01:12:52;45.35;;;11.88;;
58864;SDS011;45702;52.982;6.658;2023-02-11T01:15:19;43.33;;;11.52;;
58864;SDS011;45702;52.982;6.658;2023-02-11T01:17:46;45.92;;;11.35;;
58864;SDS011;45702;52.982;6.658;2023-02-11T01:20:19;40.90;;;10.07;;
58864;SDS011;45702;52.982;6.658;2023-02-11T01:22:47;44.83;;;10.35;;
58864;SDS011;45702;52.982;6.658;2023-02-11T01:25:13;43.05;;;9.68;;
58864;SDS011;45702;52.982;6.658;2023-02-11T01:27:40;45.20;;;11.55;;
58864;SDS011;45702;52.982;6.658;2023-02-11T01:30:07;39.38;;;10.43;;
58864;SDS011;45702;52.982;6.658;2023-02-11T01:32:34;48.08;;;11.15;;
58864;SDS011;45702;52.982;6.658;2023-02-11T01:35:00;41.72;;;10.32;;
58864;SDS011;45702;52.982;6.658;2023-02-11T01:37:26;38.63;;;10.57;;
58864;SDS011;45702;52.982;6.658;2023-02-11T01:39:52;39.90;;;10.27;;
58864;SDS011;45702;52.982;6.658;2023-02-11T01:42:19;42.53;;;10.65;;
58864;SDS011;45702;52.982;6.658;2023-02-11T01:44:52;38.40;;;10.77;;
58864;SDS011;45702;52.982;6.658;2023-02-11T01:47:20;48.83;;;11.25;;
58864;SDS011;45702;52.982;6.658;2023-02-11T01:49:56;41.70;;;10.88;;
58864;SDS011;45702;52.982;6.658;2023-02-11T01:52:28;53.67;;;10.95;;
58864;SDS011;45702;52.982;6.658;2023-02-11T01:54:59;43.80;;;10.85;;
58864;SDS011;45702;52.982;6.658;2023-02-11T01:57:47;47.25;;;11.07;;
58864;SDS011;45702;52.982;6.658;2023-02-11T02:08:16;46.07;;;11.73;;
58864;SDS011;45702;52.982;6.658;2023-02-11T02:10:53;44.55;;;11.25;;
58864;SDS011;45702;52.982;6.658;2023-02-11T02:13:23;40.25;;;11.60;;
58864;SDS011;45702;52.982;6.658;2023-02-11T02:26:35;48.53;;;12.80;;
58864;SDS011;45702;52.982;6.658;2023-02-11T02:34:32;46.30;;;13.65;;
58864;SDS011;45702;52.982;6.658;2023-02-11T02:37:11;45.05;;;13.98;;
58864;SDS011;45702;52.982;6.658;2023-02-11T02:39:45;49.60;;;15.32;;
58864;SDS011;45702;52.982;6.658;2023-02-11T02:42:14;48.40;;;14.98;;
58864;SDS011;45702;52.982;6.658;2023-02-11T02:44:46;49.17;;;15.10;;
58864;SDS011;45702;52.982;6.658;2023-02-11T02:47:13;48.05;;;15.57;;
58864;SDS011;45702;52.982;6.658;2023-02-11T02:49:38;55.88;;;15.80;;
58864;SDS011;45702;52.982;6.658;2023-02-11T02:52:41;59.63;;;17.63;;
58864;SDS011;45702;52.982;6.658;2023-02-11T02:58:22;54.28;;;16.83;;
58864;SDS011;45702;52.982;6.658;2023-02-11T03:04:03;46.22;;;15.27;;
58864;SDS011;45702;52.982;6.658;2023-02-11T03:09:16;65.70;;;19.92;;
58864;SDS011;45702;52.982;6.658;2023-02-11T03:11:48;58.85;;;18.58;;
58864;SDS011;45702;52.982;6.658;2023-02-11T03:14:14;66.55;;;19.67;;
58864;SDS011;45702;52.982;6.658;2023-02-11T03:16:42;64.13;;;20.83;;
58864;SDS011;45702;52.982;6.658;2023-02-11T03:19:23;70.68;;;21.20;;
58864;SDS011;45702;52.982;6.658;2023-02-11T03:21:53;58.58;;;20.98;;
58864;SDS011;45702;52.982;6.658;2023-02-11T03:24:23;65.80;;;20.98;;
58864;SDS011;45702;52.982;6.658;2023-02-11T03:29:58;67.18;;;21.63;;
58864;SDS011;45702;52.982;6.658;2023-02-11T03:33:13;78.90;;;21.98;;
58864;SDS011;45702;52.982;6.658;2023-02-11T03:35:31;64.22;;;20.67;;
58864;SDS011;45702;52.982;6.658;2023-02-11T03:38:00;72.68;;;22.27;;
58864;SDS011;45702;52.982;6.658;2023-02-11T03:40:40;72.07;;;22.17;;
58864;SDS011;45702;52.982;6.658;2023-02-11T03:43:09;60.25;;;21.60;;
58864;SDS011;45702;52.982;6.658;2023-02-11T03:45:59;64.85;;;21.35;;
58864;SDS011;45702;52.982;6.658;2023-02-11T03:48:29;67.43;;;22.52;;
58864;SDS011;45702;52.982;6.658;2023-02-11T03:50:58;64.38;;;21.98;;
58864;SDS011;45702;52.982;6.658;2023-02-11T03:53:26;65.18;;;21.27;;
58864;SDS011;45702;52.982;6.658;2023-02-11T03:55:53;74.07;;;23.73;;
58864;SDS011;45702;52.982;6.658;2023-02-11T03:58:21;66.95;;;22.60;;
58864;SDS011;45702;52.982;6.658;2023-02-11T04:00:46;70.40;;;22.92;;
58864;SDS011;45702;52.982;6.658;2023-02-11T04:03:13;65.00;;;22.20;;
58864;SDS011;45702;52.982;6.658;2023-02-11T04:05:39;65.72;;;22.50;;
58864;SDS011;45702;52.982;6.658;2023-02-11T04:08:05;65.35;;;23.40;;
58864;SDS011;45702;52.982;6.658;2023-02-11T04:10:31;69.10;;;23.27;;
58864;SDS011;45702;52.982;6.658;2023-02-11T04:12:57;74.80;;;23.27;;
58864;SDS011;45702;52.982;6.658;2023-02-11T04:15:23;63.47;;;21.58;;
58864;SDS011;45702;52.982;6.658;2023-02-11T04:17:48;65.55;;;23.70;;
58864;SDS011;45702;52.982;6.658;2023-02-11T04:20:14;71.53;;;23.45;;
58864;SDS011;45702;52.982;6.658;2023-02-11T04:22:40;66.05;;;23.33;;
58864;SDS011;45702;52.982;6.658;2023-02-11T04:25:05;67.63;;;23.15;;
58864;SDS011;45702;52.982;6.658;2023-02-11T04:27:32;75.47;;;24.05;;
58864;SDS011;45702;52.982;6.658;2023-02-11T04:29:57;73.68;;;24.52;;
58864;SDS011;45702;52.982;6.658;2023-02-11T04:32:23;63.28;;;22.27;;
58864;SDS011;45702;52.982;6.658;2023-02-11T04:34:49;67.75;;;23.70;;
58864;SDS011;45702;52.982;6.658;2023-02-11T04:37:15;77.38;;;24.65;;
58864;SDS011;45702;52.982;6.658;2023-02-11T04:39:40;73.28;;;23.33;;
58864;SDS011;45702;52.982;6.658;2023-02-11T04:42:06;81.50;;;24.85;;
58864;SDS011;45702;52.982;6.658;2023-02-11T04:44:32;71.13;;;23.85;;
58864;SDS011;45702;52.982;6.658;2023-02-11T04:46:58;72.95;;;24.63;;
58864;SDS011;45702;52.982;6.658;2023-02-11T04:49:23;74.03;;;23.27;;
58864;SDS011;45702;52.982;6.658;2023-02-11T04:51:49;72.57;;;25.58;;
58864;SDS011;45702;52.982;6.658;2023-02-11T04:54:15;73.63;;;24.17;;
58864;SDS011;45702;52.982;6.658;2023-02-11T04:56:41;70.22;;;23.45;;
58864;SDS011;45702;52.982;6.658;2023-02-11T04:59:07;65.68;;;23.83;;
58864;SDS011;45702;52.982;6.658;2023-02-11T05:01:33;67.55;;;25.15;;
58864;SDS011;45702;52.982;6.658;2023-02-11T05:03:59;70.28;;;23.98;;
58864;SDS011;45702;52.982;6.658;2023-02-11T05:06:25;75.93;;;24.42;;
58864;SDS011;45702;52.982;6.658;2023-02-11T05:08:50;75.97;;;25.00;;
58864;SDS011;45702;52.982;6.658;2023-02-11T05:11:17;76.40;;;25.33;;
58864;SDS011;45702;52.982;6.658;2023-02-11T05:13:45;69.75;;;23.75;;
58864;SDS011;45702;52.982;6.658;2023-02-11T05:16:11;69.97;;;23.77;;
58864;SDS011;45702;52.982;6.658;2023-02-11T05:18:37;75.78;;;25.17;;
58864;SDS011;45702;52.982;6.658;2023-02-11T05:21:04;76.20;;;25.90;;
58864;SDS011;45702;52.982;6.658;2023-02-11T05:23:31;72.95;;;25.42;;
58864;SDS011;45702;52.982;6.658;2023-02-11T05:25:58;83.28;;;25.45;;
58864;SDS011;45702;52.982;6.658;2023-02-11T05:28:24;77.22;;;26.20;;
58864;SDS011;45702;52.982;6.658;2023-02-11T05:30:49;80.53;;;26.88;;
58864;SDS011;45702;52.982;6.658;2023-02-11T05:33:15;74.90;;;24.80;;
58864;SDS011;45702;52.982;6.658;2023-02-11T05:35:41;77.70;;;26.15;;
58864;SDS011;45702;52.982;6.658;2023-02-11T05:38:06;87.05;;;26.45;;
58864;SDS011;45702;52.982;6.658;2023-02-11T05:40:32;91.60;;;27.73;;
58864;SDS011;45702;52.982;6.658;2023-02-11T05:42:58;78.90;;;25.92;;
58864;SDS011;45702;52.982;6.658;2023-02-11T05:45:23;82.88;;;27.25;;
58864;SDS011;45702;52.982;6.658;2023-02-11T05:47:49;81.60;;;26.45;;
58864;SDS011;45702;52.982;6.658;2023-02-11T05:50:14;77.97;;;27.33;;
58864;SDS011;45702;52.982;6.658;2023-02-11T05:52:40;79.03;;;27.05;;
58864;SDS011;45702;52.982;6.658;2023-02-11T05:55:06;78.22;;;26.25;;
58864;SDS011;45702;52.982;6.658;2023-02-11T05:57:32;83.22;;;27.52;;
58864;SDS011;45702;52.982;6.658;2023-02-11T05:59:57;95.68;;;26.83;;
58864;SDS011;45702;52.982;6.658;2023-02-11T06:02:23;85.47;;;27.25;;
58864;SDS011;45702;52.982;6.658;2023-02-11T06:04:49;85.03;;;26.48;;
58864;SDS011;45702;52.982;6.658;2023-02-11T06:07:14;79.25;;;25.52;;
58864;SDS011;45702;52.982;6.658;2023-02-11T06:09:41;79.35;;;27.42;;
58864;SDS011;45702;52.982;6.658;2023-02-11T06:12:07;91.38;;;28.60;;
58864;SDS011;45702;52.982;6.658;2023-02-11T06:14:32;89.10;;;27.65;;
58864;SDS011;45702;52.982;6.658;2023-02-11T06:16:58;90.28;;;28.02;;
58864;SDS011;45702;52.982;6.658;2023-02-11T06:19:24;91.10;;;28.15;;
58864;SDS011;45702;52.982;6.658;2023-02-11T06:21:50;85.00;;;27.58;;
58864;SDS011;45702;52.982;6.658;2023-02-11T06:24:16;84.05;;;27.63;;
58864;SDS011;45702;52.982;6.658;2023-02-11T06:26:41;85.78;;;27.40;;
58864;SDS011;45702;52.982;6.658;2023-02-11T06:29:07;78.40;;;26.58;;
58864;SDS011;45702;52.982;6.658;2023-02-11T06:31:33;94.10;;;28.02;;
58864;SDS011;45702;52.982;6.658;2023-02-11T06:33:59;74.05;;;25.63;;
58864;SDS011;45702;52.982;6.658;2023-02-11T06:36:25;97.72;;;29.10;;
58864;SDS011;45702;52.982;6.658;2023-02-11T06:38:51;78.75;;;27.98;;
58864;SDS011;45702;52.982;6.658;2023-02-11T06:41:17;94.93;;;29.05;;
58864;SDS011;45702;52.982;6.658;2023-02-11T06:43:47;87.63;;;28.38;;
58864;SDS011;45702;52.982;6.658;2023-02-11T06:46:13;93.60;;;28.65;;
58864;SDS011;45702;52.982;6.658;2023-02-11T06:48:39;88.88;;;28.90;;
58864;SDS011;45702;52.982;6.658;2023-02-11T06:51:06;89.28;;;29.25;;
58864;SDS011;45702;52.982;6.658;2023-02-11T06:53:35;88.55;;;28.08;;
58864;SDS011;45702;52.982;6.658;2023-02-11T06:56:03;92.23;;;30.07;;
58864;SDS011;45702;52.982;6.658;2023-02-11T06:58:30;88.97;;;29.13;;
58864;SDS011;45702;52.982;6.658;2023-02-11T07:00:56;96.22;;;31.27;;
58864;SDS011;45702;52.982;6.658;2023-02-11T07:03:22;90.88;;;30.52;;
58864;SDS011;45702;52.982;6.658;2023-02-11T07:05:47;97.10;;;28.88;;
58864;SDS011;45702;52.982;6.658;2023-02-11T07:08:13;92.93;;;30.73;;
58864;SDS011;45702;52.982;6.658;2023-02-11T07:10:39;94.45;;;30.83;;
58864;SDS011;45702;52.982;6.658;2023-02-11T07:13:05;96.13;;;30.70;;
58864;SDS011;45702;52.982;6.658;2023-02-11T07:15:31;96.80;;;31.38;;
58864;SDS011;45702;52.982;6.658;2023-02-11T07:17:57;100.22;;;31.30;;
58864;SDS011;45702;52.982;6.658;2023-02-11T07:20:23;92.60;;;30.45;;
58864;SDS011;45702;52.982;6.658;2023-02-11T07:22:49;93.60;;;32.53;;
58864;SDS011;45702;52.982;6.658;2023-02-11T07:25:15;93.80;;;31.48;;
58864;SDS011;45702;52.982;6.658;2023-02-11T07:27:41;101.72;;;31.52;;
58864;SDS011;45702;52.982;6.658;2023-02-11T07:30:07;98.22;;;32.03;;
58864;SDS011;45702;52.982;6.658;2023-02-11T07:32:33;98.38;;;31.80;;
58864;SDS011;45702;52.982;6.658;2023-02-11T07:34:58;96.82;;;31.58;;
58864;SDS011;45702;52.982;6.658;2023-02-11T07:37:24;94.13;;;31.45;;
58864;SDS011;45702;52.982;6.658;2023-02-11T07:39:50;98.00;;;31.52;;
58864;SDS011;45702;52.982;6.658;2023-02-11T07:42:16;100.50;;;32.38;;
58864;SDS011;45702;52.982;6.658;2023-02-11T07:44:41;85.75;;;29.83;;
58864;SDS011;45702;52.982;6.658;2023-02-11T07:47:07;90.57;;;30.67;;
58864;SDS011;45702;52.982;6.658;2023-02-11T07:49:33;90.38;;;30.92;;
58864;SDS011;45702;52.982;6.658;2023-02-11T07:51:58;97.50;;;31.73;;
58864;SDS011;45702;52.982;6.658;2023-02-11T07:54:24;88.78;;;30.25;;
58864;SDS011;45702;52.982;6.658;2023-02-11T07:56:50;86.68;;;29.70;;
58864;SDS011;45702;52.982;6.658;2023-02-11T07:59:16;95.18;;;30.02;;
58864;SDS011;45702;52.982;6.658;2023-02-11T08:01:42;93.35;;;31.23;;
58864;SDS011;45702;52.982;6.658;2023-02-11T08:04:08;91.82;;;30.95;;
58864;SDS011;45702;52.982;6.658;2023-02-11T08:06:34;86.97;;;30.27;;
58864;SDS011;45702;52.982;6.658;2023-02-11T08:09:04;86.22;;;30.05;;
58864;SDS011;45702;52.982;6.658;2023-02-11T08:11:31;85.90;;;29.02;;
58864;SDS011;45702;52.982;6.658;2023-02-11T08:13:57;87.47;;;29.92;;
58864;SDS011;45702;52.982;6.658;2023-02-11T08:16:27;88.22;;;29.92;;
58864;SDS011;45702;52.982;6.658;2023-02-11T08:18:58;87.60;;;30.20;;
58864;SDS011;45702;52.982;6.658;2023-02-11T08:21:26;88.10;;;29.13;;
58864;SDS011;45702;52.982;6.658;2023-02-11T08:23:53;81.20;;;28.30;;
58864;SDS011;45702;52.982;6.658;2023-02-11T08:26:20;80.15;;;28.73;;
58864;SDS011;45702;52.982;6.658;2023-02-11T08:28:48;83.57;;;28.92;;
58864;SDS011;45702;52.982;6.658;2023-02-11T08:31:16;80.50;;;28.77;;
58864;SDS011;45702;52.982;6.658;2023-02-11T08:33:43;83.53;;;28.92;;
58864;SDS011;45702;52.982;6.658;2023-02-11T08:36:10;79.03;;;29.73;;
58864;SDS011;45702;52.982;6.658;2023-02-11T08:38:39;89.30;;;29.52;;
58864;SDS011;45702;52.982;6.658;2023-02-11T08:41:06;84.75;;;29.60;;
58864;SDS011;45702;52.982;6.658;2023-02-11T08:43:32;83.63;;;29.45;;
58864;SDS011;45702;52.982;6.658;2023-02-11T08:45:58;77.93;;;27.90;;
58864;SDS011;45702;52.982;6.658;2023-02-11T08:48:24;83.90;;;28.35;;
58864;SDS011;45702;52.982;6.658;2023-02-11T08:50:50;77.30;;;29.00;;
58864;SDS011;45702;52.982;6.658;2023-02-11T08:53:16;81.88;;;28.33;;
58864;SDS011;45702;52.982;6.658;2023-02-11T08:55:51;81.13;;;28.20;;
58864;SDS011;45702;52.982;6.658;2023-02-11T08:58:18;71.18;;;28.10;;
58864;SDS011;45702;52.982;6.658;2023-02-11T09:00:45;79.82;;;26.92;;
58864;SDS011;45702;52.982;6.658;2023-02-11T09:03:12;73.95;;;27.10;;
58864;SDS011;45702;52.982;6.658;2023-02-11T09:05:45;79.45;;;27.30;;
58864;SDS011;45702;52.982;6.658;2023-02-11T09:08:13;82.28;;;27.20;;
58864;SDS011;45702;52.982;6.658;2023-02-11T09:10:39;77.68;;;26.90;;
58864;SDS011;45702;52.982;6.658;2023-02-11T09:13:05;80.22;;;28.00;;
58864;SDS011;45702;52.982;6.658;2023-02-11T09:15:31;84.07;;;30.90;;
58864;SDS011;45702;52.982;6.658;2023-02-11T09:17:58;71.38;;;28.52;;
58864;SDS011;45702;52.982;6.658;2023-02-11T09:20:23;73.32;;;26.30;;
58864;SDS011;45702;52.982;6.658;2023-02-11T09:22:51;70.88;;;25.35;;
58864;SDS011;45702;52.982;6.658;2023-02-11T09:25:18;62.35;;;24.20;;
58864;SDS011;45702;52.982;6.658;2023-02-11T09:27:44;66.30;;;24.67;;
58864;SDS011;45702;52.982;6.658;2023-02-11T09:30:10;73.50;;;23.38;;
58864;SDS011;45702;52.982;6.658;2023-02-11T09:32:36;67.80;;;23.80;;
58864;SDS011;45702;52.982;6.658;2023-02-11T09:35:02;65.30;;;23.63;;
58864;SDS011;45702;52.982;6.658;2023-02-11T09:37:28;63.25;;;22.95;;
58864;SDS011;45702;52.982;6.658;2023-02-11T09:39:54;59.95;;;22.45;;
58864;SDS011;45702;52.982;6.658;2023-02-11T09:44:57;55.35;;;22.08;;
58864;SDS011;45702;52.982;6.658;2023-02-11T09:50:02;62.35;;;21.80;;
58864;SDS011;45702;52.982;6.658;2023-02-11T09:53:03;53.45;;;21.08;;
58864;SDS011;45702;52.982;6.658;2023-02-11T09:55:30;55.13;;;21.10;;
58864;SDS011;45702;52.982;6.658;2023-02-11T09:58:11;52.13;;;20.45;;
58864;SDS011;45702;52.982;6.658;2023-02-11T10:00:56;55.05;;;20.77;;
58864;SDS011;45702;52.982;6.658;2023-02-11T10:09:03;55.90;;;20.83;;
58864;SDS011;45702;52.982;6.658;2023-02-11T10:11:51;50.20;;;19.23;;
58864;SDS011;45702;52.982;6.658;2023-02-11T10:17:10;47.67;;;18.83;;
58864;SDS011;45702;52.982;6.658;2023-02-11T10:22:42;42.95;;;17.67;;
58864;SDS011;45702;52.982;6.658;2023-02-11T10:25:22;46.53;;;18.67;;
58864;SDS011;45702;52.982;6.658;2023-02-11T10:27:48;46.05;;;18.38;;
58864;SDS011;45702;52.982;6.658;2023-02-11T10:30:19;41.92;;;17.67;;
58864;SDS011;45702;52.982;6.658;2023-02-11T10:35:24;45.60;;;16.77;;
58864;SDS011;45702;52.982;6.658;2023-02-11T10:37:51;44.42;;;18.10;;
58864;SDS011;45702;52.982;6.658;2023-02-11T10:40:20;47.38;;;17.02;;
58864;SDS011;45702;52.982;6.658;2023-02-11T10:42:49;44.00;;;16.55;;
58864;SDS011;45702;52.982;6.658;2023-02-11T10:45:27;39.17;;;16.02;;
58864;SDS011;45702;52.982;6.658;2023-02-11T10:47:58;39.28;;;15.35;;
58864;SDS011;45702;52.982;6.658;2023-02-11T10:50:26;41.90;;;15.95;;
58864;SDS011;45702;52.982;6.658;2023-02-11T10:55:49;45.92;;;17.35;;
58864;SDS011;45702;52.982;6.658;2023-02-11T10:58:25;41.42;;;16.20;;
58864;SDS011;45702;52.982;6.658;2023-02-11T11:01:04;40.50;;;15.32;;
58864;SDS011;45702;52.982;6.658;2023-02-11T11:03:33;38.45;;;14.07;;
58864;SDS011;45702;52.982;6.658;2023-02-11T11:06:04;35.28;;;14.25;;
58864;SDS011;45702;52.982;6.658;2023-02-11T11:08:42;38.90;;;14.35;;
58864;SDS011;45702;52.982;6.658;2023-02-11T11:11:13;41.45;;;14.63;;
58864;SDS011;45702;52.982;6.658;2023-02-11T11:18:51;40.85;;;13.32;;
58864;SDS011;45702;52.982;6.658;2023-02-11T11:23:50;35.85;;;12.93;;
58864;SDS011;45702;52.982;6.658;2023-02-11T11:26:24;35.78;;;12.75;;
58864;SDS011;45702;52.982;6.658;2023-02-11T11:29:14;28.70;;;12.43;;
58864;SDS011;45702;52.982;6.658;2023-02-11T11:31:55;30.40;;;11.52;;
58864;SDS011;45702;52.982;6.658;2023-02-11T11:34:28;31.47;;;12.07;;
58864;SDS011;45702;52.982;6.658;2023-02-11T11:36:58;34.08;;;12.23;;
58864;SDS011;45702;52.982;6.658;2023-02-11T11:39:33;31.52;;;12.05;;
58864;SDS011;45702;52.982;6.658;2023-02-11T11:42:04;44.03;;;12.50;;
58864;SDS011;45702;52.982;6.658;2023-02-11T11:44:54;36.05;;;11.80;;
58864;SDS011;45702;52.982;6.658;2023-02-11T11:47:26;33.17;;;11.55;;
58864;SDS011;45702;52.982;6.658;2023-02-11T11:52:55;29.85;;;11.85;;
58864;SDS011;45702;52.982;6.658;2023-02-11T11:55:40;29.85;;;11.45;;
58864;SDS011;45702;52.982;6.658;2023-02-11T11:58:15;32.17;;;10.73;;
58864;SDS011;45702;52.982;6.658;2023-02-11T12:03:42;28.80;;;10.52;;
58864;SDS011;45702;52.982;6.658;2023-02-11T12:22:27;28.80;;;9.40;;
58864;SDS011;45702;52.982;6.658;2023-02-11T12:27:52;28.30;;;8.55;;
58864;SDS011;45702;52.982;6.658;2023-02-11T12:36:01;31.90;;;9.93;;
58864;SDS011;45702;52.982;6.658;2023-02-11T12:38:41;29.80;;;9.10;;
58864;SDS011;45702;52.982;6.658;2023-02-11T12:44:39;25.73;;;7.93;;
58864;SDS011;45702;52.982;6.658;2023-02-11T12:47:04;33.05;;;9.25;;
58864;SDS011;45702;52.982;6.658;2023-02-11T12:49:37;30.75;;;8.20;;
58864;SDS011;45702;52.982;6.658;2023-02-11T12:52:22;33.65;;;9.27;;
58864;SDS011;45702;52.982;6.658;2023-02-11T12:55:23;38.67;;;12.40;;
58864;SDS011;45702;52.982;6.658;2023-02-11T12:57:52;25.40;;;6.90;;
58864;SDS011;45702;52.982;6.658;2023-02-11T13:00:22;25.63;;;8.35;;
58864;SDS011;45702;52.982;6.658;2023-02-11T13:03:00;26.95;;;7.43;;
58864;SDS011;45702;52.982;6.658;2023-02-11T13:05:37;29.23;;;6.97;;
58864;SDS011;45702;52.982;6.658;2023-02-11T13:10:51;17.10;;;5.97;;
58864;SDS011;45702;52.982;6.658;2023-02-11T13:13:30;26.25;;;6.43;;
58864;SDS011;45702;52.982;6.658;2023-02-11T13:16:03;23.40;;;6.13;;
58864;SDS011;45702;52.982;6.658;2023-02-11T13:18:50;30.20;;;6.50;;
58864;SDS011;45702;52.982;6.658;2023-02-11T13:22:06;18.73;;;6.72;;
58864;SDS011;45702;52.982;6.658;2023-02-11T13:38:03;25.05;;;6.55;;
58864;SDS011;45702;52.982;6.658;2023-02-11T13:41:02;25.13;;;5.38;;
58864;SDS011;45702;52.982;6.658;2023-02-11T13:43:40;23.63;;;6.00;;
58864;SDS011;45702;52.982;6.658;2023-02-11T13:46:08;21.40;;;6.20;;
58864;SDS011;45702;52.982;6.658;2023-02-11T13:48:37;24.05;;;5.95;;
58864;SDS011;45702;52.982;6.658;2023-02-11T13:51:11;28.77;;;6.90;;
58864;SDS011;45702;52.982;6.658;2023-02-11T13:53:57;24.02;;;6.55;;
58864;SDS011;45702;52.982;6.658;2023-02-11T13:56:28;24.75;;;6.43;;
58864;SDS011;45702;52.982;6.658;2023-02-11T13:58:57;23.00;;;5.28;;
58864;SDS011;45702;52.982;6.658;2023-02-11T14:04:18;22.88;;;8.48;;
58864;SDS011;45702;52.982;6.658;2023-02-11T14:10:47;26.73;;;7.45;;
58864;SDS011;45702;52.982;6.658;2023-02-11T14:13:18;24.10;;;6.32;;
58864;SDS011;45702;52.982;6.658;2023-02-11T14:16:10;30.48;;;5.95;;
58864;SDS011;45702;52.982;6.658;2023-02-11T14:23:50;28.80;;;6.35;;
58864;SDS011;45702;52.982;6.658;2023-02-11T14:28:50;23.00;;;6.40;;
58864;SDS011;45702;52.982;6.658;2023-02-11T14:31:25;23.10;;;5.40;;
58864;SDS011;45702;52.982;6.658;2023-02-11T14:36:53;22.50;;;5.95;;
58864;SDS011;45702;52.982;6.658;2023-02-11T14:42:04;31.45;;;6.82;;
58864;SDS011;45702;52.982;6.658;2023-02-11T14:44:32;27.92;;;6.45;;
58864;SDS011;45702;52.982;6.658;2023-02-11T14:46:59;26.52;;;6.75;;
58864;SDS011;45702;52.982;6.658;2023-02-11T14:49:35;27.27;;;5.72;;
58864;SDS011;45702;52.982;6.658;2023-02-11T14:52:12;27.10;;;6.15;;
58864;SDS011;45702;52.982;6.658;2023-02-11T14:54:47;30.50;;;6.25;;
58864;SDS011;45702;52.982;6.658;2023-02-11T14:57:18;31.65;;;6.28;;
58864;SDS011;45702;52.982;6.658;2023-02-11T15:00:02;25.83;;;6.00;;
58864;SDS011;45702;52.982;6.658;2023-02-11T15:02:34;34.80;;;8.60;;
58864;SDS011;45702;52.982;6.658;2023-02-11T15:05:21;25.77;;;7.32;;
58864;SDS011;45702;52.982;6.658;2023-02-11T15:10:18;26.55;;;5.75;;
58864;SDS011;45702;52.982;6.658;2023-02-11T15:12:48;24.88;;;5.80;;
58864;SDS011;45702;52.982;6.658;2023-02-11T15:15:14;27.10;;;6.80;;
58864;SDS011;45702;52.982;6.658;2023-02-11T15:17:41;23.60;;;6.47;;
58864;SDS011;45702;52.982;6.658;2023-02-11T15:20:12;24.80;;;6.47;;
58864;SDS011;45702;52.982;6.658;2023-02-11T15:22:43;29.40;;;7.10;;
58864;SDS011;45702;52.982;6.658;2023-02-11T15:25:12;25.73;;;6.47;;
58864;SDS011;45702;52.982;6.658;2023-02-11T15:27:51;28.63;;;6.22;;
58864;SDS011;45702;52.982;6.658;2023-02-11T15:32:46;30.08;;;8.07;;
58864;SDS011;45702;52.982;6.658;2023-02-11T15:35:12;27.17;;;6.55;;
58864;SDS011;45702;52.982;6.658;2023-02-11T15:37:38;25.58;;;6.47;;
58864;SDS011;45702;52.982;6.658;2023-02-11T15:40:13;36.10;;;7.70;;
58864;SDS011;45702;52.982;6.658;2023-02-11T15:45:41;26.75;;;7.20;;
58864;SDS011;45702;52.982;6.658;2023-02-11T15:48:20;27.92;;;6.95;;
58864;SDS011;45702;52.982;6.658;2023-02-11T15:50:54;26.30;;;8.13;;
58864;SDS011;45702;52.982;6.658;2023-02-11T15:53:36;36.42;;;9.18;;
58864;SDS011;45702;52.982;6.658;2023-02-11T15:58:37;32.55;;;7.25;;
58864;SDS011;45702;52.982;6.658;2023-02-11T16:01:04;25.42;;;6.07;;
58864;SDS011;45702;52.982;6.658;2023-02-11T16:03:31;25.17;;;6.32;;
58864;SDS011;45702;52.982;6.658;2023-02-11T16:08:54;27.65;;;6.43;;
58864;SDS011;45702;52.982;6.658;2023-02-11T16:11:32;20.67;;;6.10;;
58864;SDS011;45702;52.982;6.658;2023-02-11T16:14:00;21.02;;;5.85;;
58864;SDS011;45702;52.982;6.658;2023-02-11T16:16:42;22.95;;;5.88;;
58864;SDS011;45702;52.982;6.658;2023-02-11T16:19:16;30.38;;;6.50;;
58864;SDS011;45702;52.982;6.658;2023-02-11T16:21:43;20.55;;;6.50;;
58864;SDS011;45702;52.982;6.658;2023-02-11T16:24:20;28.58;;;6.35;;
58864;SDS011;45702;52.982;6.658;2023-02-11T16:26:55;29.05;;;5.68;;
58864;SDS011;45702;52.982;6.658;2023-02-11T16:29:25;34.70;;;7.00;;
58864;SDS011;45702;52.982;6.658;2023-02-11T16:31:53;20.33;;;5.78;;
58864;SDS011;45702;52.982;6.658;2023-02-11T16:34:33;29.08;;;8.48;;
58864;SDS011;45702;52.982;6.658;2023-02-11T16:36:59;22.20;;;6.90;;
58864;SDS011;45702;52.982;6.658;2023-02-11T16:39:28;45.72;;;12.15;;
58864;SDS011;45702;52.982;6.658;2023-02-11T16:41:54;58.17;;;16.90;;
58864;SDS011;45702;52.982;6.658;2023-02-11T16:44:20;50.75;;;16.77;;
58864;SDS011;45702;52.982;6.658;2023-02-11T16:46:46;41.03;;;13.52;;
58864;SDS011;45702;52.982;6.658;2023-02-11T16:49:16;34.60;;;8.18;;
58864;SDS011;45702;52.982;6.658;2023-02-11T16:51:42;29.77;;;6.85;;
58864;SDS011;45702;52.982;6.658;2023-02-11T16:54:12;24.05;;;6.88;;
58864;SDS011;45702;52.982;6.658;2023-02-11T16:56:39;29.42;;;5.93;;
58864;SDS011;45702;52.982;6.658;2023-02-11T16:59:05;21.10;;;5.60;;
58864;SDS011;45702;52.982;6.658;2023-02-11T17:01:30;29.90;;;7.30;;
58864;SDS011;45702;52.982;6.658;2023-02-11T17:03:56;25.85;;;6.47;;
58864;SDS011;45702;52.982;6.658;2023-02-11T17:06:22;32.05;;;6.82;;
58864;SDS011;45702;52.982;6.658;2023-02-11T17:08:48;23.65;;;5.60;;